createdAt,value
2019-06-15T00:00:48.570Z,100836.18
2019-06-15T00:03:15.059Z,100832.41
2019-06-15T00:05:41.458Z,100828.00
2019-06-15T00:08:07.819Z,100827.63
2019-06-15T00:10:34.479Z,100815.91
2019-06-15T00:13:00.843Z,100815.08
2019-06-15T00:15:27.261Z,100806.50
2019-06-15T00:17:53.631Z,100808.81
2019-06-15T00:20:20.109Z,100805.16
2019-06-15T00:22:46.518Z,100805.88
2019-06-15T00:25:12.953Z,100804.41
2019-06-15T00:27:39.329Z,100794.15
2019-06-15T00:30:05.955Z,100790.11
2019-06-15T00:32:32.328Z,100790.63
2019-06-15T00:34:58.755Z,100780.84
2019-06-15T00:37:25.129Z,100778.77
2019-06-15T00:39:51.536Z,100771.56
2019-06-15T00:42:17.941Z,100763.61
2019-06-15T00:44:44.335Z,100762.24
2019-06-15T00:47:10.708Z,100765.44
2019-06-15T00:49:37.188Z,100754.30
2019-06-15T00:52:03.622Z,100758.97
2019-06-15T00:54:30.012Z,100746.61
2019-06-15T00:56:56.376Z,100755.64
2019-06-15T00:59:22.749Z,100757.36
2019-06-15T01:01:49.131Z,100758.97
2019-06-15T01:04:15.515Z,100757.22
2019-06-15T01:06:41.918Z,100740.50
2019-06-15T01:09:08.383Z,100732.33
2019-06-15T01:11:34.805Z,100726.09
2019-06-15T01:14:01.321Z,100719.63
2019-06-15T01:16:27.715Z,100720.25
2019-06-15T01:18:54.104Z,100720.00
2019-06-15T01:21:20.483Z,100721.59
2019-06-15T01:23:46.937Z,100726.84
2019-06-15T01:26:13.321Z,100725.62
2019-06-15T01:28:39.698Z,100731.86
2019-06-15T01:31:06.103Z,100718.90
2019-06-15T01:33:33.687Z,100709.01
2019-06-15T01:36:00.085Z,100695.20
2019-06-15T01:38:26.555Z,100691.55
2019-06-15T01:40:53.015Z,100683.36
2019-06-15T01:43:19.641Z,100675.28
2019-06-15T01:45:46.026Z,100686.77
2019-06-15T01:48:12.426Z,100677.48
2019-06-15T01:50:38.859Z,100660.13
2019-06-15T01:53:05.274Z,100652.94
2019-06-15T01:55:31.684Z,100640.48
2019-06-15T01:57:58.182Z,100649.77
2019-06-15T02:00:28.210Z,100666.73
2019-06-15T02:02:54.618Z,100683.47
2019-06-15T02:05:21.237Z,100703.13
2019-06-15T02:07:47.643Z,100708.25
2019-06-15T02:10:15.678Z,100713.88
2019-06-15T02:12:42.056Z,100706.56
2019-06-15T02:15:08.746Z,100697.87
2019-06-15T02:17:35.110Z,100696.80
2019-06-15T02:20:01.539Z,100688.97
2019-06-15T02:22:27.915Z,100677.11
2019-06-15T02:24:54.327Z,100676.39
2019-06-15T02:27:20.984Z,100665.50
2019-06-15T02:29:47.361Z,100673.87
2019-06-15T02:32:13.743Z,100670.03
2019-06-15T02:34:40.129Z,100665.73
2019-06-15T02:37:06.594Z,100657.80
2019-06-15T02:39:32.994Z,100642.12
2019-06-15T02:41:59.460Z,100628.18
2019-06-15T02:44:25.857Z,100620.16
2019-06-15T02:46:52.217Z,100606.47
2019-06-15T02:49:18.695Z,100571.17
2019-06-15T02:51:45.170Z,100525.34
2019-06-15T02:54:11.738Z,100517.28
2019-06-15T02:56:38.071Z,100500.45
2019-06-15T02:59:04.435Z,100483.25
2019-06-15T03:01:30.979Z,100453.77
2019-06-15T03:03:57.395Z,100432.44
2019-06-15T03:06:23.913Z,100408.59
2019-06-15T03:08:50.408Z,100379.11
2019-06-15T03:11:16.794Z,100390.95
2019-06-15T03:13:43.803Z,100398.98
2019-06-15T03:16:10.179Z,100389.01
2019-06-15T03:18:36.596Z,100381.23
2019-06-15T03:21:03.159Z,100380.03
2019-06-15T03:23:29.580Z,100367.70
2019-06-15T03:26:05.126Z,100367.36
2019-06-15T03:28:24.654Z,100379.19
2019-06-15T03:30:51.018Z,100376.38
2019-06-15T03:33:17.469Z,100379.17
2019-06-15T03:35:43.836Z,100376.02
2019-06-15T03:38:10.218Z,100390.55
2019-06-15T03:40:36.639Z,100400.16
2019-06-15T03:43:03.029Z,100407.09
2019-06-15T03:45:29.436Z,100405.64
2019-06-15T03:47:55.832Z,100404.90
2019-06-15T03:50:22.226Z,100409.77
2019-06-15T03:52:48.630Z,100402.70
2019-06-15T03:55:15.362Z,100426.67
2019-06-15T03:57:41.726Z,100425.71
2019-06-15T04:00:41.423Z,100426.34
2019-06-15T04:03:07.799Z,100421.83
2019-06-15T04:05:34.190Z,100431.81
2019-06-15T04:08:00.676Z,100427.16
2019-06-15T04:10:27.068Z,100423.88
2019-06-15T04:12:53.482Z,100426.22
2019-06-15T04:15:19.878Z,100420.85
2019-06-15T04:17:46.255Z,100420.27
2019-06-15T04:20:12.787Z,100418.94
2019-06-15T04:22:39.174Z,100420.02
2019-06-15T04:25:05.637Z,100418.30
2019-06-15T04:27:32.059Z,100412.25
2019-06-15T04:29:58.442Z,100413.72
2019-06-15T04:32:24.862Z,100425.66
2019-06-15T04:34:51.325Z,100436.76
2019-06-15T04:37:17.742Z,100428.86
2019-06-15T04:39:44.172Z,100410.19
2019-06-15T04:42:10.549Z,100414.44
2019-06-15T04:44:36.989Z,100418.23
2019-06-15T04:47:03.394Z,100446.41
2019-06-15T04:49:29.786Z,100453.70
2019-06-15T04:51:56.188Z,100439.45
2019-06-15T04:54:22.562Z,100442.73
2019-06-15T04:56:51.240Z,100432.87
2019-06-15T04:59:17.332Z,100432.87
2019-06-15T05:01:43.726Z,100428.61
2019-06-15T05:04:10.129Z,100424.80
2019-06-15T05:06:37.407Z,100420.17
2019-06-15T05:09:05.193Z,100423.96
2019-06-15T05:11:31.654Z,100425.16
2019-06-15T05:13:58.161Z,100429.79
2019-06-15T05:16:24.534Z,100417.70
2019-06-15T05:18:50.948Z,100415.71
2019-06-15T05:21:17.491Z,100403.55
2019-06-15T05:23:43.911Z,100392.02
2019-06-15T05:26:10.286Z,100401.09
2019-06-15T05:28:36.672Z,100402.32
2019-06-15T05:31:03.488Z,100392.42
2019-06-15T05:33:29.819Z,100388.44
2019-06-15T05:35:56.257Z,100387.66
2019-06-15T05:38:22.714Z,100380.82
2019-06-15T05:40:49.125Z,100387.78
2019-06-15T05:43:15.527Z,100389.94
2019-06-15T05:45:41.945Z,100375.42
2019-06-15T05:48:08.692Z,100393.88
2019-06-15T05:50:35.074Z,100381.72
2019-06-15T05:53:01.472Z,100377.97
2019-06-15T05:55:27.870Z,100371.84
2019-06-15T05:57:54.429Z,100364.49
2019-06-15T06:00:21.392Z,100364.55
2019-06-15T06:02:47.809Z,100360.97
2019-06-15T06:05:14.410Z,100359.59
2019-06-15T06:07:40.835Z,100355.92
2019-06-15T06:10:10.775Z,100351.89
2019-06-15T06:12:36.824Z,100353.66
2019-06-15T06:15:03.848Z,100353.69
2019-06-15T06:17:30.237Z,100344.45
2019-06-15T06:19:56.602Z,100360.56
2019-06-15T06:22:23.026Z,100348.64
2019-06-15T06:24:49.407Z,100352.81
2019-06-15T06:27:15.825Z,100349.37
2019-06-15T06:29:42.210Z,100347.26
2019-06-15T06:32:08.599Z,100350.62
2019-06-15T06:34:35.020Z,100362.58
2019-06-15T06:37:01.400Z,100367.08
2019-06-15T06:39:27.793Z,100375.42
2019-06-15T06:41:54.198Z,100380.05
2019-06-15T06:44:20.596Z,100391.81
2019-06-15T06:46:47.056Z,100391.38
2019-06-15T06:49:13.461Z,100395.06
2019-06-15T06:51:39.835Z,100387.34
2019-06-15T06:54:06.262Z,100389.75
2019-06-15T06:56:32.629Z,100388.94
2019-06-15T06:58:59.911Z,100377.75
2019-06-15T07:01:26.336Z,100389.05
2019-06-15T07:03:52.705Z,100394.30
2019-06-15T07:06:19.169Z,100393.81
2019-06-15T07:08:47.992Z,100393.31
2019-06-15T07:11:14.034Z,100388.53
2019-06-15T07:13:40.681Z,100395.92
2019-06-15T07:16:07.237Z,100380.89
2019-06-15T07:18:33.644Z,100385.84
2019-06-15T07:21:00.172Z,100367.57
2019-06-15T07:23:26.611Z,100367.13
2019-06-15T07:25:53.038Z,100353.06
2019-06-15T07:28:19.514Z,100348.91
2019-06-15T07:30:46.264Z,100348.73
2019-06-15T07:33:12.678Z,100347.08
2019-06-15T07:35:39.106Z,100344.08
2019-06-15T07:38:05.536Z,100341.94
2019-06-15T07:40:32.009Z,100343.65
2019-06-15T07:42:58.392Z,100335.94
2019-06-15T07:45:24.772Z,100340.26
2019-06-15T07:47:51.209Z,100333.33
2019-06-15T07:50:17.812Z,100336.32
2019-06-15T07:52:44.198Z,100339.25
2019-06-15T07:55:11.143Z,100336.51
2019-06-15T07:57:37.549Z,100355.20
2019-06-15T08:00:04.765Z,100350.86
2019-06-15T08:02:31.230Z,100363.26
2019-06-15T08:04:57.821Z,100368.35
2019-06-15T08:07:24.247Z,100362.84
2019-06-15T08:09:51.559Z,100364.50
2019-06-15T08:12:17.999Z,100343.50
2019-06-15T08:14:44.392Z,100343.50
2019-06-15T08:17:10.877Z,100349.75
2019-06-15T08:19:37.277Z,100355.13
2019-06-15T08:22:03.749Z,100366.06
2019-06-15T08:24:30.163Z,100361.65
2019-06-15T08:26:56.532Z,100348.90
2019-06-15T08:29:22.925Z,100347.87
2019-06-15T08:31:49.340Z,100350.79
2019-06-15T08:34:15.722Z,100357.21
2019-06-15T08:36:42.110Z,100361.63
2019-06-15T08:39:08.514Z,100357.06
2019-06-15T08:41:35.030Z,100352.97
2019-06-15T08:44:01.505Z,100350.23
2019-06-15T08:46:28.223Z,100350.84
2019-06-15T08:48:54.612Z,100346.62
2019-06-15T08:51:20.980Z,100341.74
2019-06-15T08:53:47.381Z,100338.91
2019-06-15T08:56:14.822Z,100333.32
2019-06-15T08:58:54.745Z,100330.97
2019-06-15T09:01:10.391Z,100338.52
2019-06-15T09:03:36.768Z,100344.52
2019-06-15T09:06:03.383Z,100340.66
2019-06-15T09:08:29.783Z,100333.52
2019-06-15T09:10:56.218Z,100328.11
2019-06-15T09:13:22.589Z,100333.17
2019-06-15T09:15:50.595Z,100333.88
2019-06-15T09:18:17.000Z,100328.42
2019-06-15T09:20:44.372Z,100324.81
2019-06-15T09:23:10.752Z,100319.59
2019-06-15T09:25:37.192Z,100317.22
2019-06-15T09:28:03.602Z,100304.63
2019-06-15T09:30:30.032Z,100294.06
2019-06-15T09:32:56.464Z,100294.61
2019-06-15T09:35:22.863Z,100298.14
2019-06-15T09:37:49.286Z,100295.42
2019-06-15T09:40:15.820Z,100295.25
2019-06-15T09:42:45.576Z,100292.58
2019-06-15T09:45:12.571Z,100288.11
2019-06-15T09:47:39.026Z,100283.67
2019-06-15T09:50:05.521Z,100283.16
2019-06-15T09:52:31.922Z,100286.82
2019-06-15T09:54:58.350Z,100289.81
2019-06-15T09:57:25.776Z,100289.11
2019-06-15T09:59:52.231Z,100287.67
2019-06-15T10:02:18.775Z,100292.27
2019-06-15T10:04:45.624Z,100296.12
2019-06-15T10:07:12.251Z,100287.50
2019-06-15T10:09:38.799Z,100304.72
2019-06-15T10:12:06.480Z,100308.34
2019-06-15T10:14:33.077Z,100314.08
2019-06-15T10:16:59.499Z,100312.02
2019-06-15T10:19:25.940Z,100318.22
2019-06-15T10:21:52.343Z,100308.44
2019-06-15T10:24:20.823Z,100304.66
2019-06-15T10:26:47.200Z,100308.59
2019-06-15T10:29:13.632Z,100309.50
2019-06-15T10:31:40.020Z,100304.83
2019-06-15T10:34:06.520Z,100307.86
2019-06-15T10:36:32.936Z,100305.45
2019-06-15T10:38:59.465Z,100310.42
2019-06-15T10:41:25.851Z,100301.83
2019-06-15T10:43:52.272Z,100304.99
2019-06-15T10:46:18.665Z,100306.48
2019-06-15T10:48:45.351Z,100303.02
2019-06-15T10:51:11.769Z,100298.98
2019-06-15T10:53:38.175Z,100299.25
2019-06-15T10:56:04.715Z,100299.94
2019-06-15T10:58:32.540Z,100301.19
2019-06-15T11:00:58.909Z,100302.94
2019-06-15T11:03:26.111Z,100304.05
2019-06-15T11:05:54.908Z,100299.59
2019-06-15T11:08:21.786Z,100304.23
2019-06-15T11:17:45.755Z,100293.00
2019-06-15T11:20:12.676Z,100304.61
2019-06-15T11:22:39.162Z,100301.97
2019-06-15T11:25:05.737Z,100310.14
2019-06-15T11:27:32.250Z,100308.70
2019-06-15T11:30:12.564Z,100314.13
2019-06-15T11:32:26.870Z,100326.40
2019-06-15T11:34:53.301Z,100320.66
2019-06-15T11:37:19.686Z,100327.82
2019-06-15T11:39:46.073Z,100328.24
2019-06-15T11:42:12.512Z,100323.25
2019-06-15T11:44:38.990Z,100325.56
2019-06-15T11:47:05.555Z,100337.05
2019-06-15T11:49:31.945Z,100335.35
2019-06-15T11:51:58.663Z,100334.30
2019-06-15T11:54:25.090Z,100330.59
2019-06-15T11:56:51.496Z,100346.50
2019-06-15T11:59:17.935Z,100341.89
2019-06-15T12:01:44.372Z,100346.38
2019-06-15T12:04:11.021Z,100353.94
2019-06-15T12:06:38.159Z,100351.28
2019-06-15T12:09:06.009Z,100354.30
2019-06-15T12:11:32.395Z,100349.53
2019-06-15T12:13:58.832Z,100352.45
2019-06-15T12:16:28.556Z,100343.55
2019-06-15T12:18:55.022Z,100341.63
2019-06-15T12:21:21.482Z,100346.08
2019-06-15T12:23:47.901Z,100336.73
2019-06-15T12:26:14.289Z,100335.14
2019-06-15T12:28:40.734Z,100345.28
2019-06-15T12:31:07.321Z,100345.25
2019-06-15T12:33:33.711Z,100340.84
2019-06-15T12:36:00.401Z,100340.45
2019-06-15T12:38:27.846Z,100336.14
2019-06-15T12:40:59.355Z,100343.83
2019-06-15T12:43:25.764Z,100342.56
2019-06-15T12:45:52.149Z,100343.44
2019-06-15T12:48:18.599Z,100337.91
2019-06-15T12:50:45.107Z,100338.77
2019-06-15T12:53:11.448Z,100345.38
2019-06-15T12:55:37.865Z,100342.72
2019-06-15T12:58:04.261Z,100347.60
2019-06-15T13:00:35.267Z,100341.63
2019-06-15T13:03:01.696Z,100351.97
2019-06-15T13:05:29.064Z,100349.66
2019-06-15T13:07:55.497Z,100354.53
2019-06-15T13:10:21.874Z,100350.09
2019-06-15T13:12:48.282Z,100351.50
2019-06-15T13:15:15.111Z,100355.92
2019-06-15T13:17:41.525Z,100354.14
2019-06-15T13:20:09.031Z,100351.73
2019-06-15T13:22:35.453Z,100355.41
2019-06-15T13:25:01.923Z,100359.57
2019-06-15T13:27:28.379Z,100361.98
2019-06-15T13:29:54.839Z,100355.67
2019-06-15T13:32:21.282Z,100364.55
2019-06-15T13:34:47.673Z,100362.46
2019-06-15T13:37:14.655Z,100363.38
2019-06-15T13:39:41.044Z,100365.29
2019-06-15T13:42:07.433Z,100356.13
2019-06-15T13:44:33.814Z,100363.73
2019-06-15T13:47:01.314Z,100369.63
2019-06-15T13:49:30.009Z,100375.55
2019-06-15T13:52:01.848Z,100379.95
2019-06-15T13:54:29.682Z,100379.93
2019-06-15T13:56:56.120Z,100390.55
2019-06-15T13:59:22.598Z,100392.17
2019-06-15T14:01:49.250Z,100387.22
2019-06-15T14:04:15.633Z,100396.27
2019-06-15T14:06:42.114Z,100400.17
2019-06-15T14:09:08.702Z,100401.77
2019-06-15T14:11:35.209Z,100406.87
2019-06-15T14:14:01.607Z,100410.66
2019-06-15T14:16:27.985Z,100420.67
2019-06-15T14:18:54.400Z,100413.31
2019-06-15T14:21:20.768Z,100424.78
2019-06-15T14:23:47.197Z,100414.54
2019-06-15T14:26:13.591Z,100413.32
2019-06-15T14:28:40.057Z,100419.34
2019-06-15T14:31:06.469Z,100411.57
2019-06-15T14:33:32.862Z,100422.28
2019-06-15T14:35:59.271Z,100420.55
2019-06-15T14:38:25.667Z,100412.05
2019-06-15T14:40:52.058Z,100408.92
2019-06-15T14:43:18.440Z,100412.58
2019-06-15T14:45:58.451Z,100416.16
2019-06-15T14:48:13.212Z,100412.75
2019-06-15T14:50:39.770Z,100411.33
2019-06-15T14:53:06.112Z,100415.94
2019-06-15T14:55:32.515Z,100417.02
2019-06-15T14:57:58.883Z,100414.46
2019-06-15T15:00:25.383Z,100412.07
2019-06-15T15:02:51.749Z,100411.13
2019-06-15T15:05:18.295Z,100407.13
2019-06-15T15:07:46.945Z,100413.55
2019-06-15T15:10:16.200Z,100414.11
2019-06-15T15:12:42.098Z,100414.73
2019-06-15T15:15:09.139Z,100419.48
2019-06-15T15:17:37.225Z,100404.34
2019-06-15T15:20:07.094Z,100417.72
2019-06-15T15:22:33.021Z,100416.60
2019-06-15T15:24:59.421Z,100413.56
2019-06-15T15:27:27.129Z,100416.89
2019-06-15T15:29:53.820Z,100413.70
2019-06-15T15:32:27.133Z,100415.67
2019-06-15T15:34:48.591Z,100424.52
2019-06-15T15:37:15.915Z,100416.71
2019-06-15T15:39:42.316Z,100418.90
2019-06-15T15:42:08.859Z,100436.61
2019-06-15T15:44:35.971Z,100439.20
2019-06-15T15:47:02.527Z,100441.27
2019-06-15T15:49:28.930Z,100444.88
2019-06-15T15:51:56.594Z,100453.30
2019-06-15T15:54:23.423Z,100474.33
2019-06-15T15:56:49.810Z,100474.48
2019-06-15T15:59:16.391Z,100486.10
2019-06-15T16:01:42.866Z,100499.05
2019-06-15T16:04:09.335Z,100507.52
2019-06-15T16:06:36.367Z,100515.41
2019-06-15T16:09:06.163Z,100506.22
2019-06-15T16:11:33.092Z,100510.11
2019-06-15T16:13:59.503Z,100510.16
2019-06-15T16:16:26.664Z,100527.21
2019-06-15T16:18:55.985Z,100512.58
2019-06-15T16:21:21.879Z,100518.03
2019-06-15T16:23:48.348Z,100523.08
2019-06-15T16:26:16.994Z,100509.69
2019-06-15T16:28:46.104Z,100505.59
2019-06-15T16:31:14.130Z,100511.05
2019-06-15T16:33:41.295Z,100511.56
2019-06-15T16:36:07.971Z,100524.86
2019-06-15T16:38:36.440Z,100522.27
2019-06-15T16:41:02.696Z,100526.54
2019-06-15T16:43:29.102Z,100537.92
2019-06-15T16:45:57.065Z,100530.55
2019-06-15T16:48:25.963Z,100519.32
2019-06-15T16:50:52.232Z,100516.72
2019-06-15T16:53:19.061Z,100507.98
2019-06-15T16:55:46.842Z,100516.89
2019-06-15T16:58:15.968Z,100508.34
2019-06-15T17:00:41.939Z,100516.29
2019-06-15T17:03:20.674Z,100514.76
2019-06-15T17:05:37.854Z,100514.05
2019-06-15T17:08:06.695Z,100521.92
2019-06-15T17:10:39.943Z,100534.42
2019-06-15T17:13:07.095Z,100563.38
2019-06-15T17:15:33.586Z,100537.82
2019-06-15T17:18:00.949Z,100543.68
2019-06-15T17:20:31.725Z,100546.91
2019-06-15T17:22:58.114Z,100557.16
2019-06-15T17:25:26.875Z,100558.81
2019-06-15T17:27:52.851Z,100568.48
2019-06-15T17:30:19.662Z,100575.91
2019-06-15T17:32:46.068Z,100584.12
2019-06-15T17:35:12.490Z,100580.66
2019-06-15T17:37:38.883Z,100576.99
2019-06-15T17:40:05.554Z,100584.77
2019-06-15T17:42:31.952Z,100571.63
2019-06-15T17:44:59.143Z,100577.07
2019-06-15T17:47:26.259Z,100575.00
2019-06-15T17:49:56.084Z,100572.16
2019-06-15T17:52:22.251Z,100579.86
2019-06-15T17:54:48.665Z,100580.62
2019-06-15T17:57:15.077Z,100570.83
2019-06-15T17:59:41.459Z,100571.77
2019-06-15T18:02:07.906Z,100580.72
2019-06-15T18:04:37.097Z,100592.41
2019-06-15T18:07:02.625Z,100603.02
2019-06-15T18:09:29.025Z,100608.20
2019-06-15T18:11:57.166Z,100606.97
2019-06-15T18:14:26.262Z,100613.85
2019-06-15T18:16:52.005Z,100609.25
2019-06-15T18:19:18.393Z,100617.42
2019-06-15T18:21:46.744Z,100618.92
2019-06-15T18:24:13.152Z,100612.30
2019-06-15T18:26:39.534Z,100607.75
2019-06-15T18:29:05.978Z,100612.94
2019-06-15T18:31:32.435Z,100605.14
2019-06-15T18:34:09.297Z,100606.36
2019-06-15T18:36:27.380Z,100610.04
2019-06-15T18:38:53.764Z,100605.78
2019-06-15T18:41:20.170Z,100598.90
2019-06-15T18:43:46.551Z,100597.06
2019-06-15T18:46:12.935Z,100603.20
2019-06-15T18:48:39.340Z,100600.81
2019-06-15T18:51:07.583Z,100599.47
2019-06-15T18:53:36.771Z,100608.95
2019-06-15T18:56:02.386Z,100603.34
2019-06-15T18:58:28.809Z,100600.52
2019-06-15T19:00:55.193Z,100602.45
2019-06-15T19:03:21.665Z,100603.55
2019-06-15T19:05:48.082Z,100610.50
2019-06-15T19:08:17.116Z,100609.94
2019-06-15T19:10:42.930Z,100617.09
2019-06-15T19:13:10.286Z,100619.94
2019-06-15T19:15:37.465Z,100616.29
2019-06-15T19:18:04.004Z,100619.35
2019-06-15T19:20:30.542Z,100623.18
2019-06-15T19:22:57.098Z,100617.94
2019-06-15T19:25:23.493Z,100628.55
2019-06-15T19:27:50.059Z,100633.80
2019-06-15T19:30:16.769Z,100644.60
2019-06-15T19:32:43.290Z,100650.20
2019-06-15T19:35:09.901Z,100658.80
2019-06-15T19:37:37.078Z,100673.82
2019-06-15T19:40:03.811Z,100673.69
2019-06-15T19:42:38.124Z,100693.23
2019-06-15T19:45:07.741Z,100712.90
2019-06-15T19:47:40.320Z,100721.69
2019-06-15T19:50:09.777Z,100736.47
2019-06-15T19:52:36.087Z,100758.11
2019-06-15T19:55:02.735Z,100772.88
2019-06-15T19:57:29.231Z,100781.05
2019-06-15T19:59:56.194Z,100788.00
2019-06-15T20:02:22.776Z,100789.23
2019-06-15T20:05:00.356Z,100792.09
2019-06-15T20:07:18.259Z,100798.22
2019-06-15T20:09:46.246Z,100796.02
2019-06-15T20:12:19.173Z,100805.55
2019-06-15T20:14:46.011Z,100809.09
2019-06-15T20:17:11.656Z,100820.85
2019-06-15T20:19:38.444Z,100816.82
2019-06-15T20:22:06.644Z,100815.22
2019-06-15T20:24:33.296Z,100817.14
2019-06-15T20:26:59.765Z,100819.77
2019-06-15T20:29:27.155Z,100818.42
2019-06-15T20:31:53.672Z,100815.75
2019-06-15T20:34:20.107Z,100825.04
2019-06-15T20:36:47.102Z,100820.89
2019-06-15T20:39:16.487Z,100829.38
2019-06-15T20:41:43.413Z,100828.67
2019-06-15T20:44:09.920Z,100831.59
2019-06-15T20:46:37.154Z,100832.56
2019-06-15T20:49:06.521Z,100833.72
2019-06-15T20:51:33.440Z,100828.14
2019-06-15T20:54:00.720Z,100817.99
2019-06-15T20:56:27.618Z,100819.13
2019-06-15T20:58:56.974Z,100820.30
2019-06-15T21:01:22.348Z,100830.63
2019-06-15T21:03:48.822Z,100822.83
2019-06-15T21:06:16.861Z,100831.11
2019-06-15T21:08:43.424Z,100831.32
2019-06-15T21:11:09.828Z,100842.42
2019-06-15T21:13:37.465Z,100844.79
2019-06-15T21:16:06.532Z,100844.33
2019-06-15T21:18:34.038Z,100842.11
2019-06-15T21:21:00.772Z,100846.19
2019-06-15T21:23:27.151Z,100844.09
2019-06-15T21:25:53.597Z,100855.77
2019-06-15T21:28:20.090Z,100850.91
2019-06-15T21:30:47.106Z,100848.77
2019-06-15T21:33:13.754Z,100851.56
2019-06-15T21:35:48.971Z,100857.50
2019-06-15T21:38:08.494Z,100868.59
2019-06-15T21:40:36.770Z,100866.16
2019-06-15T21:43:03.245Z,100868.50
2019-06-15T21:45:29.657Z,100872.67
2019-06-15T21:47:56.364Z,100881.31
2019-06-15T21:50:22.827Z,100888.97
2019-06-15T21:52:49.504Z,100893.37
2019-06-15T21:55:16.084Z,100893.51
2019-06-15T21:57:42.649Z,100906.29
2019-06-15T22:00:12.596Z,100910.72
2019-06-15T22:02:47.083Z,100911.20
2019-06-15T22:05:13.799Z,100907.03
2019-06-15T22:07:40.220Z,100913.44
2019-06-15T22:10:07.300Z,100910.09
2019-06-15T22:12:36.357Z,100910.78
2019-06-15T22:15:02.237Z,100914.73
2019-06-15T22:17:28.821Z,100912.47
2019-06-15T22:19:56.921Z,100921.45
2019-06-15T22:22:23.488Z,100927.00
2019-06-15T22:24:49.893Z,100934.27
2019-06-15T22:27:17.046Z,100941.81
2019-06-15T22:29:43.626Z,100947.26
2019-06-15T22:32:10.048Z,100942.56
2019-06-15T22:34:36.524Z,100953.74
2019-06-15T22:37:03.080Z,100959.29
2019-06-15T22:39:29.488Z,100968.17
2019-06-15T22:41:56.160Z,100974.98
2019-06-15T22:44:22.809Z,100988.70
2019-06-15T22:46:49.265Z,100986.63
2019-06-15T22:49:16.131Z,100985.26
2019-06-15T22:51:42.783Z,100982.97
2019-06-15T22:54:09.231Z,100982.58
2019-06-15T22:56:37.028Z,100977.70
2019-06-15T22:59:06.126Z,100991.33
2019-06-15T23:01:32.068Z,100990.86
2019-06-15T23:03:58.504Z,100980.30
2019-06-15T23:06:34.711Z,100988.22
2019-06-15T23:08:53.393Z,100974.75
2019-06-15T23:11:19.814Z,100976.89
2019-06-15T23:13:46.438Z,100976.03
2019-06-15T23:16:12.832Z,100976.95
2019-06-15T23:18:39.308Z,100980.27
2019-06-15T23:21:06.399Z,100981.41
2019-06-15T23:23:32.936Z,100982.50
2019-06-15T23:25:59.364Z,100988.37
2019-06-15T23:28:27.074Z,100981.14
2019-06-15T23:30:56.051Z,100986.56
2019-06-15T23:33:22.085Z,100990.78
2019-06-15T23:35:56.832Z,100998.29
2019-06-15T23:38:23.274Z,100994.11
2019-06-15T23:40:49.677Z,100992.87
2019-06-15T23:43:16.682Z,100993.11
2019-06-15T23:45:56.083Z,101001.16
2019-06-15T23:48:22.647Z,101009.98
2019-06-15T23:50:49.035Z,101009.47
2019-06-15T23:53:16.929Z,101006.80
2019-06-15T23:55:43.472Z,101008.83
2019-06-15T23:58:09.869Z,101005.70
